sensor_id;sensor_type;location;lat;lon;timestamp;P1;durP1;ratioP1;P2;durP2;ratioP2
8716;SDS011;4395;48.554;8.820;2023-09-08T00:01:22;5.07;;;4.57;;
8716;SDS011;4395;48.554;8.820;2023-09-08T00:03:24;5.67;;;4.87;;
8716;SDS011;4395;48.554;8.820;2023-09-08T00:05:27;5.23;;;4.80;;
8716;SDS011;4395;48.554;8.820;2023-09-08T00:07:30;5.00;;;4.60;;
8716;SDS011;4395;48.554;8.820;2023-09-08T00:09:33;5.73;;;5.17;;
8716;SDS011;4395;48.554;8.820;2023-09-08T00:11:36;4.70;;;4.30;;
8716;SDS011;4395;48.554;8.820;2023-09-08T00:13:40;5.33;;;4.83;;
8716;SDS011;4395;48.554;8.820;2023-09-08T00:15:43;5.40;;;4.90;;
8716;SDS011;4395;48.554;8.820;2023-09-08T00:17:46;5.17;;;4.77;;
8716;SDS011;4395;48.554;8.820;2023-09-08T00:19:49;6.63;;;4.90;;
8716;SDS011;4395;48.554;8.820;2023-09-08T00:21:53;5.43;;;4.93;;
8716;SDS011;4395;48.554;8.820;2023-09-08T00:23:55;4.80;;;4.40;;
8716;SDS011;4395;48.554;8.820;2023-09-08T00:25:59;5.40;;;4.90;;
8716;SDS011;4395;48.554;8.820;2023-09-08T00:28:02;6.93;;;4.80;;
8716;SDS011;4395;48.554;8.820;2023-09-08T00:30:07;6.77;;;5.27;;
8716;SDS011;4395;48.554;8.820;2023-09-08T00:32:10;5.00;;;4.60;;
8716;SDS011;4395;48.554;8.820;2023-09-08T00:34:13;5.33;;;4.83;;
8716;SDS011;4395;48.554;8.820;2023-09-08T00:36:16;5.40;;;4.90;;
8716;SDS011;4395;48.554;8.820;2023-09-08T00:38:20;5.80;;;5.07;;
8716;SDS011;4395;48.554;8.820;2023-09-08T00:40:23;5.67;;;5.17;;
8716;SDS011;4395;48.554;8.820;2023-09-08T00:42:27;5.30;;;4.80;;
8716;SDS011;4395;48.554;8.820;2023-09-08T00:44:29;5.50;;;5.00;;
8716;SDS011;4395;48.554;8.820;2023-09-08T00:46:33;5.37;;;4.67;;
8716;SDS011;4395;48.554;8.820;2023-09-08T00:48:37;4.93;;;4.53;;
8716;SDS011;4395;48.554;8.820;2023-09-08T00:50:40;7.97;;;5.00;;
8716;SDS011;4395;48.554;8.820;2023-09-08T00:52:43;5.00;;;4.57;;
8716;SDS011;4395;48.554;8.820;2023-09-08T00:54:46;5.37;;;4.97;;
8716;SDS011;4395;48.554;8.820;2023-09-08T00:56:49;5.60;;;5.10;;
8716;SDS011;4395;48.554;8.820;2023-09-08T00:58:58;5.67;;;5.17;;
8716;SDS011;4395;48.554;8.820;2023-09-08T01:01:02;5.40;;;4.90;;
8716;SDS011;4395;48.554;8.820;2023-09-08T01:03:08;5.73;;;5.23;;
8716;SDS011;4395;48.554;8.820;2023-09-08T01:05:12;5.57;;;5.07;;
8716;SDS011;4395;48.554;8.820;2023-09-08T01:07:15;5.80;;;5.30;;
8716;SDS011;4395;48.554;8.820;2023-09-08T01:09:20;5.43;;;4.93;;
8716;SDS011;4395;48.554;8.820;2023-09-08T01:11:24;6.57;;;5.50;;
8716;SDS011;4395;48.554;8.820;2023-09-08T01:13:28;5.13;;;4.73;;
8716;SDS011;4395;48.554;8.820;2023-09-08T01:15:31;6.03;;;5.47;;
8716;SDS011;4395;48.554;8.820;2023-09-08T01:17:34;5.87;;;5.37;;
8716;SDS011;4395;48.554;8.820;2023-09-08T01:19:39;5.87;;;5.30;;
8716;SDS011;4395;48.554;8.820;2023-09-08T01:21:58;7.07;;;5.30;;
8716;SDS011;4395;48.554;8.820;2023-09-08T01:24:19;5.20;;;4.80;;
8716;SDS011;4395;48.554;8.820;2023-09-08T01:26:40;5.43;;;4.97;;
8716;SDS011;4395;48.554;8.820;2023-09-08T01:28:44;5.50;;;5.00;;
8716;SDS011;4395;48.554;8.820;2023-09-08T01:30:51;8.07;;;5.07;;
8716;SDS011;4395;48.554;8.820;2023-09-08T01:32:56;5.73;;;4.83;;
8716;SDS011;4395;48.554;8.820;2023-09-08T01:34:59;6.10;;;5.60;;
8716;SDS011;4395;48.554;8.820;2023-09-08T01:37:03;5.47;;;5.07;;
8716;SDS011;4395;48.554;8.820;2023-09-08T01:39:07;5.70;;;4.90;;
8716;SDS011;4395;48.554;8.820;2023-09-08T01:41:10;5.07;;;4.67;;
8716;SDS011;4395;48.554;8.820;2023-09-08T01:43:14;7.97;;;5.43;;
8716;SDS011;4395;48.554;8.820;2023-09-08T01:45:17;5.93;;;5.40;;
8716;SDS011;4395;48.554;8.820;2023-09-08T01:47:20;5.77;;;5.27;;
8716;SDS011;4395;48.554;8.820;2023-09-08T01:49:22;6.40;;;5.80;;
8716;SDS011;4395;48.554;8.820;2023-09-08T01:51:25;6.03;;;5.43;;
8716;SDS011;4395;48.554;8.820;2023-09-08T01:53:28;5.70;;;5.20;;
8716;SDS011;4395;48.554;8.820;2023-09-08T01:55:30;6.57;;;5.70;;
8716;SDS011;4395;48.554;8.820;2023-09-08T01:57:33;5.57;;;5.07;;
8716;SDS011;4395;48.554;8.820;2023-09-08T01:59:36;6.33;;;5.73;;
8716;SDS011;4395;48.554;8.820;2023-09-08T02:01:39;6.10;;;5.53;;
8716;SDS011;4395;48.554;8.820;2023-09-08T02:03:42;5.97;;;5.47;;
8716;SDS011;4395;48.554;8.820;2023-09-08T02:05:45;6.27;;;5.63;;
8716;SDS011;4395;48.554;8.820;2023-09-08T02:07:47;5.87;;;5.37;;
8716;SDS011;4395;48.554;8.820;2023-09-08T02:09:50;6.53;;;5.83;;
8716;SDS011;4395;48.554;8.820;2023-09-08T02:11:53;5.50;;;5.10;;
8716;SDS011;4395;48.554;8.820;2023-09-08T02:13:56;6.13;;;5.23;;
8716;SDS011;4395;48.554;8.820;2023-09-08T02:16:00;5.73;;;5.13;;
8716;SDS011;4395;48.554;8.820;2023-09-08T02:18:04;5.60;;;5.07;;
8716;SDS011;4395;48.554;8.820;2023-09-08T02:20:09;6.17;;;5.57;;
8716;SDS011;4395;48.554;8.820;2023-09-08T02:22:13;5.70;;;5.10;;
8716;SDS011;4395;48.554;8.820;2023-09-08T02:24:16;5.80;;;5.30;;
8716;SDS011;4395;48.554;8.820;2023-09-08T02:26:19;5.70;;;5.20;;
8716;SDS011;4395;48.554;8.820;2023-09-08T02:28:21;5.40;;;5.00;;
8716;SDS011;4395;48.554;8.820;2023-09-08T02:30:26;5.97;;;5.20;;
8716;SDS011;4395;48.554;8.820;2023-09-08T02:32:31;5.77;;;5.27;;
8716;SDS011;4395;48.554;8.820;2023-09-08T02:34:34;6.10;;;5.33;;
8716;SDS011;4395;48.554;8.820;2023-09-08T02:36:40;6.27;;;5.30;;
8716;SDS011;4395;48.554;8.820;2023-09-08T02:38:43;6.47;;;5.40;;
8716;SDS011;4395;48.554;8.820;2023-09-08T02:40:45;6.23;;;5.57;;
8716;SDS011;4395;48.554;8.820;2023-09-08T02:42:48;6.37;;;5.77;;
8716;SDS011;4395;48.554;8.820;2023-09-08T02:44:51;5.80;;;5.30;;
8716;SDS011;4395;48.554;8.820;2023-09-08T02:46:54;10.07;;;5.50;;
8716;SDS011;4395;48.554;8.820;2023-09-08T02:49:00;7.87;;;5.77;;
8716;SDS011;4395;48.554;8.820;2023-09-08T02:51:03;6.47;;;5.40;;
8716;SDS011;4395;48.554;8.820;2023-09-08T02:53:06;6.10;;;5.60;;
8716;SDS011;4395;48.554;8.820;2023-09-08T02:55:09;6.00;;;5.40;;
8716;SDS011;4395;48.554;8.820;2023-09-08T02:57:11;8.03;;;5.87;;
8716;SDS011;4395;48.554;8.820;2023-09-08T02:59:14;6.40;;;5.80;;
8716;SDS011;4395;48.554;8.820;2023-09-08T03:01:18;7.77;;;5.80;;
8716;SDS011;4395;48.554;8.820;2023-09-08T03:03:22;7.07;;;5.47;;
8716;SDS011;4395;48.554;8.820;2023-09-08T03:05:26;9.00;;;5.90;;
8716;SDS011;4395;48.554;8.820;2023-09-08T03:07:29;6.00;;;5.50;;
8716;SDS011;4395;48.554;8.820;2023-09-08T03:09:33;6.60;;;5.90;;
8716;SDS011;4395;48.554;8.820;2023-09-08T03:11:36;6.40;;;5.77;;
8716;SDS011;4395;48.554;8.820;2023-09-08T03:13:41;6.63;;;5.63;;
8716;SDS011;4395;48.554;8.820;2023-09-08T03:15:44;7.40;;;5.63;;
8716;SDS011;4395;48.554;8.820;2023-09-08T03:17:46;6.53;;;5.87;;
8716;SDS011;4395;48.554;8.820;2023-09-08T03:19:49;6.20;;;5.37;;
8716;SDS011;4395;48.554;8.820;2023-09-08T03:21:53;6.50;;;5.67;;
8716;SDS011;4395;48.554;8.820;2023-09-08T03:23:56;6.03;;;5.43;;
8716;SDS011;4395;48.554;8.820;2023-09-08T03:25:59;7.57;;;5.93;;
8716;SDS011;4395;48.554;8.820;2023-09-08T03:28:01;7.97;;;5.87;;
8716;SDS011;4395;48.554;8.820;2023-09-08T03:30:06;6.40;;;5.80;;
8716;SDS011;4395;48.554;8.820;2023-09-08T03:32:09;6.57;;;6.00;;
8716;SDS011;4395;48.554;8.820;2023-09-08T03:34:13;6.43;;;5.87;;
8716;SDS011;4395;48.554;8.820;2023-09-08T03:36:17;6.30;;;5.70;;
8716;SDS011;4395;48.554;8.820;2023-09-08T03:38:21;6.87;;;5.40;;
8716;SDS011;4395;48.554;8.820;2023-09-08T03:40:24;5.80;;;5.30;;
8716;SDS011;4395;48.554;8.820;2023-09-08T03:42:28;6.23;;;5.63;;
8716;SDS011;4395;48.554;8.820;2023-09-08T03:44:30;6.40;;;5.80;;
8716;SDS011;4395;48.554;8.820;2023-09-08T03:46:33;6.43;;;5.90;;
8716;SDS011;4395;48.554;8.820;2023-09-08T03:48:36;5.83;;;5.23;;
8716;SDS011;4395;48.554;8.820;2023-09-08T03:50:39;6.10;;;5.50;;
8716;SDS011;4395;48.554;8.820;2023-09-08T03:52:46;6.83;;;6.17;;
8716;SDS011;4395;48.554;8.820;2023-09-08T03:54:50;6.57;;;5.97;;
8716;SDS011;4395;48.554;8.820;2023-09-08T03:56:53;6.13;;;5.53;;
8716;SDS011;4395;48.554;8.820;2023-09-08T03:58:56;6.30;;;5.67;;
8716;SDS011;4395;48.554;8.820;2023-09-08T04:00:59;6.80;;;5.63;;
8716;SDS011;4395;48.554;8.820;2023-09-08T04:03:02;6.73;;;5.93;;
8716;SDS011;4395;48.554;8.820;2023-09-08T04:05:06;6.30;;;5.70;;
8716;SDS011;4395;48.554;8.820;2023-09-08T04:07:09;6.70;;;5.50;;
8716;SDS011;4395;48.554;8.820;2023-09-08T04:09:11;9.80;;;6.07;;
8716;SDS011;4395;48.554;8.820;2023-09-08T04:11:15;7.63;;;5.93;;
8716;SDS011;4395;48.554;8.820;2023-09-08T04:13:18;6.60;;;5.60;;
8716;SDS011;4395;48.554;8.820;2023-09-08T04:15:20;8.97;;;7.70;;
8716;SDS011;4395;48.554;8.820;2023-09-08T04:17:24;8.03;;;7.27;;
8716;SDS011;4395;48.554;8.820;2023-09-08T04:19:26;8.10;;;6.50;;
8716;SDS011;4395;48.554;8.820;2023-09-08T04:21:29;8.10;;;6.90;;
8716;SDS011;4395;48.554;8.820;2023-09-08T04:23:32;6.63;;;6.03;;
8716;SDS011;4395;48.554;8.820;2023-09-08T04:25:35;6.90;;;6.20;;
8716;SDS011;4395;48.554;8.820;2023-09-08T04:27:40;7.30;;;5.90;;
8716;SDS011;4395;48.554;8.820;2023-09-08T04:29:43;6.63;;;5.97;;
8716;SDS011;4395;48.554;8.820;2023-09-08T04:31:46;8.70;;;6.13;;
8716;SDS011;4395;48.554;8.820;2023-09-08T04:33:49;8.17;;;7.37;;
8716;SDS011;4395;48.554;8.820;2023-09-08T04:35:51;8.20;;;7.10;;
8716;SDS011;4395;48.554;8.820;2023-09-08T04:37:53;14.83;;;7.80;;
8716;SDS011;4395;48.554;8.820;2023-09-08T04:39:56;10.33;;;7.07;;
8716;SDS011;4395;48.554;8.820;2023-09-08T04:41:59;7.93;;;7.23;;
8716;SDS011;4395;48.554;8.820;2023-09-08T04:44:04;7.83;;;7.13;;
8716;SDS011;4395;48.554;8.820;2023-09-08T04:46:08;8.03;;;7.33;;
8716;SDS011;4395;48.554;8.820;2023-09-08T04:48:12;8.43;;;7.50;;
8716;SDS011;4395;48.554;8.820;2023-09-08T04:50:15;9.97;;;7.73;;
8716;SDS011;4395;48.554;8.820;2023-09-08T04:52:19;8.10;;;7.30;;
8716;SDS011;4395;48.554;8.820;2023-09-08T04:54:22;8.30;;;7.43;;
8716;SDS011;4395;48.554;8.820;2023-09-08T04:56:29;8.33;;;7.43;;
8716;SDS011;4395;48.554;8.820;2023-09-08T04:58:32;8.63;;;7.73;;
8716;SDS011;4395;48.554;8.820;2023-09-08T05:00:38;8.40;;;7.50;;
8716;SDS011;4395;48.554;8.820;2023-09-08T05:02:42;9.07;;;7.33;;
8716;SDS011;4395;48.554;8.820;2023-09-08T05:04:45;7.73;;;7.00;;
8716;SDS011;4395;48.554;8.820;2023-09-08T05:06:48;8.47;;;7.67;;
8716;SDS011;4395;48.554;8.820;2023-09-08T05:08:52;8.33;;;7.47;;
8716;SDS011;4395;48.554;8.820;2023-09-08T05:10:57;8.43;;;7.70;;
8716;SDS011;4395;48.554;8.820;2023-09-08T05:13:00;8.07;;;7.37;;
8716;SDS011;4395;48.554;8.820;2023-09-08T05:15:06;8.47;;;7.67;;
8716;SDS011;4395;48.554;8.820;2023-09-08T05:17:20;8.47;;;7.67;;
8716;SDS011;4395;48.554;8.820;2023-09-08T05:19:24;10.63;;;8.10;;
8716;SDS011;4395;48.554;8.820;2023-09-08T05:21:27;9.20;;;7.67;;
8716;SDS011;4395;48.554;8.820;2023-09-08T05:23:30;7.83;;;7.13;;
8716;SDS011;4395;48.554;8.820;2023-09-08T05:25:33;8.73;;;7.93;;
8716;SDS011;4395;48.554;8.820;2023-09-08T05:27:36;8.70;;;7.90;;
8716;SDS011;4395;48.554;8.820;2023-09-08T05:29:39;9.23;;;7.63;;
8716;SDS011;4395;48.554;8.820;2023-09-08T05:31:42;8.20;;;7.50;;
8716;SDS011;4395;48.554;8.820;2023-09-08T05:33:45;9.07;;;7.80;;
8716;SDS011;4395;48.554;8.820;2023-09-08T05:35:48;8.60;;;7.67;;
8716;SDS011;4395;48.554;8.820;2023-09-08T05:37:51;10.60;;;8.07;;
8716;SDS011;4395;48.554;8.820;2023-09-08T05:39:54;10.83;;;9.57;;
8716;SDS011;4395;48.554;8.820;2023-09-08T05:41:57;11.67;;;7.80;;
8716;SDS011;4395;48.554;8.820;2023-09-08T05:44:00;8.67;;;7.73;;
8716;SDS011;4395;48.554;8.820;2023-09-08T05:46:03;9.37;;;8.47;;
8716;SDS011;4395;48.554;8.820;2023-09-08T05:48:05;10.03;;;9.03;;
8716;SDS011;4395;48.554;8.820;2023-09-08T05:50:10;9.47;;;8.47;;
8716;SDS011;4395;48.554;8.820;2023-09-08T05:52:13;9.40;;;8.50;;
8716;SDS011;4395;48.554;8.820;2023-09-08T05:54:17;10.47;;;8.10;;
8716;SDS011;4395;48.554;8.820;2023-09-08T05:56:20;13.80;;;9.50;;
8716;SDS011;4395;48.554;8.820;2023-09-08T05:58:26;10.73;;;8.57;;
8716;SDS011;4395;48.554;8.820;2023-09-08T06:00:29;11.40;;;9.00;;
8716;SDS011;4395;48.554;8.820;2023-09-08T06:02:32;11.13;;;9.70;;
8716;SDS011;4395;48.554;8.820;2023-09-08T06:04:34;12.73;;;8.67;;
8716;SDS011;4395;48.554;8.820;2023-09-08T06:06:39;12.27;;;9.53;;
8716;SDS011;4395;48.554;8.820;2023-09-08T06:08:42;10.13;;;9.13;;
8716;SDS011;4395;48.554;8.820;2023-09-08T06:10:45;11.40;;;9.13;;
8716;SDS011;4395;48.554;8.820;2023-09-08T06:12:48;9.87;;;8.73;;
8716;SDS011;4395;48.554;8.820;2023-09-08T06:14:52;10.37;;;9.30;;
8716;SDS011;4395;48.554;8.820;2023-09-08T06:16:55;9.73;;;8.83;;
8716;SDS011;4395;48.554;8.820;2023-09-08T06:18:58;12.43;;;9.13;;
8716;SDS011;4395;48.554;8.820;2023-09-08T06:21:02;13.23;;;8.70;;
8716;SDS011;4395;48.554;8.820;2023-09-08T06:23:06;9.83;;;8.83;;
8716;SDS011;4395;48.554;8.820;2023-09-08T06:25:09;10.47;;;8.37;;
8716;SDS011;4395;48.554;8.820;2023-09-08T06:27:13;10.10;;;9.10;;
8716;SDS011;4395;48.554;8.820;2023-09-08T06:29:17;11.57;;;9.60;;
8716;SDS011;4395;48.554;8.820;2023-09-08T06:31:20;11.50;;;9.67;;
8716;SDS011;4395;48.554;8.820;2023-09-08T06:33:23;10.70;;;9.60;;
8716;SDS011;4395;48.554;8.820;2023-09-08T06:35:26;17.07;;;10.00;;
8716;SDS011;4395;48.554;8.820;2023-09-08T06:37:28;9.40;;;8.60;;
8716;SDS011;4395;48.554;8.820;2023-09-08T06:39:32;9.83;;;8.60;;
8716;SDS011;4395;48.554;8.820;2023-09-08T06:41:37;10.20;;;9.10;;
8716;SDS011;4395;48.554;8.820;2023-09-08T06:43:41;11.87;;;9.10;;
8716;SDS011;4395;48.554;8.820;2023-09-08T06:45:49;13.80;;;9.23;;
8716;SDS011;4395;48.554;8.820;2023-09-08T06:47:55;9.77;;;8.63;;
8716;SDS011;4395;48.554;8.820;2023-09-08T06:49:58;10.10;;;9.10;;
8716;SDS011;4395;48.554;8.820;2023-09-08T06:52:02;11.57;;;9.47;;
8716;SDS011;4395;48.554;8.820;2023-09-08T06:54:06;9.60;;;8.60;;
8716;SDS011;4395;48.554;8.820;2023-09-08T06:56:14;10.40;;;9.30;;
8716;SDS011;4395;48.554;8.820;2023-09-08T06:58:16;9.87;;;8.87;;
8716;SDS011;4395;48.554;8.820;2023-09-08T07:00:19;9.40;;;8.60;;
8716;SDS011;4395;48.554;8.820;2023-09-08T07:02:22;10.83;;;8.60;;
8716;SDS011;4395;48.554;8.820;2023-09-08T07:04:26;9.57;;;8.60;;
8716;SDS011;4395;48.554;8.820;2023-09-08T07:06:30;9.83;;;7.77;;
8716;SDS011;4395;48.554;8.820;2023-09-08T07:08:33;9.33;;;8.30;;
8716;SDS011;4395;48.554;8.820;2023-09-08T07:10:36;9.10;;;8.30;;
8716;SDS011;4395;48.554;8.820;2023-09-08T07:12:41;9.23;;;8.27;;
8716;SDS011;4395;48.554;8.820;2023-09-08T07:14:44;9.60;;;8.60;;
8716;SDS011;4395;48.554;8.820;2023-09-08T07:16:48;8.97;;;8.27;;
8716;SDS011;4395;48.554;8.820;2023-09-08T07:18:50;10.53;;;8.07;;
8716;SDS011;4395;48.554;8.820;2023-09-08T07:20:53;9.10;;;8.03;;
8716;SDS011;4395;48.554;8.820;2023-09-08T07:22:56;9.73;;;8.80;;
8716;SDS011;4395;48.554;8.820;2023-09-08T07:25:00;8.47;;;7.67;;
8716;SDS011;4395;48.554;8.820;2023-09-08T07:27:03;8.53;;;7.77;;
8716;SDS011;4395;48.554;8.820;2023-09-08T07:29:07;8.43;;;7.50;;
8716;SDS011;4395;48.554;8.820;2023-09-08T07:31:10;8.17;;;7.47;;
8716;SDS011;4395;48.554;8.820;2023-09-08T07:33:17;9.40;;;7.50;;
8716;SDS011;4395;48.554;8.820;2023-09-08T07:35:21;9.10;;;7.97;;
8716;SDS011;4395;48.554;8.820;2023-09-08T07:37:26;9.33;;;7.93;;
8716;SDS011;4395;48.554;8.820;2023-09-08T07:39:29;9.53;;;8.53;;
8716;SDS011;4395;48.554;8.820;2023-09-08T07:41:33;10.80;;;8.23;;
8716;SDS011;4395;48.554;8.820;2023-09-08T07:43:36;8.90;;;8.10;;
8716;SDS011;4395;48.554;8.820;2023-09-08T07:45:45;9.00;;;8.10;;
8716;SDS011;4395;48.554;8.820;2023-09-08T07:47:48;9.90;;;8.90;;
8716;SDS011;4395;48.554;8.820;2023-09-08T07:49:51;8.40;;;7.70;;
8716;SDS011;4395;48.554;8.820;2023-09-08T07:51:54;9.27;;;8.03;;
8716;SDS011;4395;48.554;8.820;2023-09-08T07:53:56;10.47;;;9.33;;
8716;SDS011;4395;48.554;8.820;2023-09-08T07:55:59;10.20;;;9.30;;
8716;SDS011;4395;48.554;8.820;2023-09-08T07:58:03;10.77;;;9.33;;
8716;SDS011;4395;48.554;8.820;2023-09-08T08:00:07;11.60;;;9.13;;
8716;SDS011;4395;48.554;8.820;2023-09-08T08:02:14;11.43;;;9.47;;
8716;SDS011;4395;48.554;8.820;2023-09-08T08:04:17;9.67;;;8.77;;
8716;SDS011;4395;48.554;8.820;2023-09-08T08:06:20;10.20;;;9.17;;
8716;SDS011;4395;48.554;8.820;2023-09-08T08:08:22;9.67;;;8.77;;
8716;SDS011;4395;48.554;8.820;2023-09-08T08:10:25;9.67;;;8.77;;
8716;SDS011;4395;48.554;8.820;2023-09-08T08:12:28;9.77;;;8.87;;
8716;SDS011;4395;48.554;8.820;2023-09-08T08:14:30;11.03;;;9.53;;
8716;SDS011;4395;48.554;8.820;2023-09-08T08:16:33;15.83;;;9.30;;
8716;SDS011;4395;48.554;8.820;2023-09-08T08:18:38;9.93;;;9.03;;
8716;SDS011;4395;48.554;8.820;2023-09-08T08:20:41;10.73;;;9.73;;
8716;SDS011;4395;48.554;8.820;2023-09-08T08:22:45;12.13;;;10.70;;
8716;SDS011;4395;48.554;8.820;2023-09-08T08:24:48;10.50;;;9.43;;
8716;SDS011;4395;48.554;8.820;2023-09-08T08:26:51;10.70;;;9.70;;
8716;SDS011;4395;48.554;8.820;2023-09-08T08:28:54;12.33;;;10.10;;
8716;SDS011;4395;48.554;8.820;2023-09-08T08:30:57;10.50;;;9.50;;
8716;SDS011;4395;48.554;8.820;2023-09-08T08:32:59;11.13;;;9.97;;
8716;SDS011;4395;48.554;8.820;2023-09-08T08:35:03;11.07;;;9.97;;
8716;SDS011;4395;48.554;8.820;2023-09-08T08:37:07;10.47;;;9.37;;
8716;SDS011;4395;48.554;8.820;2023-09-08T08:39:09;11.07;;;10.07;;
8716;SDS011;4395;48.554;8.820;2023-09-08T08:41:12;12.17;;;9.67;;
8716;SDS011;4395;48.554;8.820;2023-09-08T08:43:16;11.20;;;10.10;;
8716;SDS011;4395;48.554;8.820;2023-09-08T08:45:18;10.80;;;9.37;;
8716;SDS011;4395;48.554;8.820;2023-09-08T08:47:24;11.07;;;9.77;;
8716;SDS011;4395;48.554;8.820;2023-09-08T08:49:29;10.90;;;9.80;;
8716;SDS011;4395;48.554;8.820;2023-09-08T08:51:35;11.57;;;10.40;;
8716;SDS011;4395;48.554;8.820;2023-09-08T08:53:40;10.77;;;9.50;;
8716;SDS011;4395;48.554;8.820;2023-09-08T08:55:44;11.87;;;9.73;;
8716;SDS011;4395;48.554;8.820;2023-09-08T08:57:48;10.67;;;9.70;;
8716;SDS011;4395;48.554;8.820;2023-09-08T08:59:52;10.30;;;9.27;;
8716;SDS011;4395;48.554;8.820;2023-09-08T09:01:55;10.90;;;9.77;;
8716;SDS011;4395;48.554;8.820;2023-09-08T09:03:59;9.70;;;8.80;;
8716;SDS011;4395;48.554;8.820;2023-09-08T09:06:03;10.03;;;9.07;;
8716;SDS011;4395;48.554;8.820;2023-09-08T09:08:09;10.20;;;9.20;;
8716;SDS011;4395;48.554;8.820;2023-09-08T09:10:13;10.30;;;9.30;;
8716;SDS011;4395;48.554;8.820;2023-09-08T09:12:19;15.60;;;10.03;;
8716;SDS011;4395;48.554;8.820;2023-09-08T09:14:23;10.97;;;9.97;;
8716;SDS011;4395;48.554;8.820;2023-09-08T09:16:26;11.63;;;10.50;;
8716;SDS011;4395;48.554;8.820;2023-09-08T09:18:29;12.23;;;9.33;;
8716;SDS011;4395;48.554;8.820;2023-09-08T09:20:33;11.47;;;10.23;;
8716;SDS011;4395;48.554;8.820;2023-09-08T09:22:36;11.37;;;9.83;;
8716;SDS011;4395;48.554;8.820;2023-09-08T09:24:41;11.00;;;9.90;;
8716;SDS011;4395;48.554;8.820;2023-09-08T09:26:45;11.93;;;10.47;;
8716;SDS011;4395;48.554;8.820;2023-09-08T09:28:48;10.37;;;9.43;;
8716;SDS011;4395;48.554;8.820;2023-09-08T09:30:53;11.17;;;9.73;;
8716;SDS011;4395;48.554;8.820;2023-09-08T09:33:00;9.73;;;8.93;;
8716;SDS011;4395;48.554;8.820;2023-09-08T09:35:04;13.07;;;9.70;;
8716;SDS011;4395;48.554;8.820;2023-09-08T09:37:08;10.50;;;9.50;;
8716;SDS011;4395;48.554;8.820;2023-09-08T09:39:11;13.97;;;9.50;;
8716;SDS011;4395;48.554;8.820;2023-09-08T09:41:17;10.13;;;9.20;;
8716;SDS011;4395;48.554;8.820;2023-09-08T09:43:20;10.47;;;9.53;;
8716;SDS011;4395;48.554;8.820;2023-09-08T09:45:24;10.97;;;9.87;;
8716;SDS011;4395;48.554;8.820;2023-09-08T09:47:26;11.77;;;9.30;;
8716;SDS011;4395;48.554;8.820;2023-09-08T09:49:29;10.27;;;9.30;;
8716;SDS011;4395;48.554;8.820;2023-09-08T09:51:33;10.50;;;9.50;;
8716;SDS011;4395;48.554;8.820;2023-09-08T09:53:43;10.40;;;9.40;;
8716;SDS011;4395;48.554;8.820;2023-09-08T09:55:46;10.40;;;9.40;;
8716;SDS011;4395;48.554;8.820;2023-09-08T09:57:49;9.23;;;8.03;;
8716;SDS011;4395;48.554;8.820;2023-09-08T09:59:53;9.07;;;8.17;;
8716;SDS011;4395;48.554;8.820;2023-09-08T10:01:57;11.47;;;8.43;;
8716;SDS011;4395;48.554;8.820;2023-09-08T10:04:01;9.03;;;8.13;;
8716;SDS011;4395;48.554;8.820;2023-09-08T10:06:05;9.47;;;8.50;;
8716;SDS011;4395;48.554;8.820;2023-09-08T10:08:09;8.47;;;7.70;;
8716;SDS011;4395;48.554;8.820;2023-09-08T10:10:12;8.47;;;7.53;;
8716;SDS011;4395;48.554;8.820;2023-09-08T10:12:14;8.73;;;8.00;;
8716;SDS011;4395;48.554;8.820;2023-09-08T10:14:22;8.13;;;7.33;;
8716;SDS011;4395;48.554;8.820;2023-09-08T10:16:26;8.23;;;7.07;;
8716;SDS011;4395;48.554;8.820;2023-09-08T10:18:30;9.83;;;7.37;;
8716;SDS011;4395;48.554;8.820;2023-09-08T10:20:36;9.43;;;7.37;;
8716;SDS011;4395;48.554;8.820;2023-09-08T10:22:41;8.20;;;7.03;;
8716;SDS011;4395;48.554;8.820;2023-09-08T10:24:44;7.40;;;6.70;;
8716;SDS011;4395;48.554;8.820;2023-09-08T10:26:51;7.93;;;7.23;;
8716;SDS011;4395;48.554;8.820;2023-09-08T10:29:00;8.47;;;7.27;;
8716;SDS011;4395;48.554;8.820;2023-09-08T10:31:05;7.60;;;7.00;;
8716;SDS011;4395;48.554;8.820;2023-09-08T10:33:12;7.03;;;6.33;;
8716;SDS011;4395;48.554;8.820;2023-09-08T10:35:17;7.37;;;6.77;;
8716;SDS011;4395;48.554;8.820;2023-09-08T10:37:21;6.87;;;6.37;;
8716;SDS011;4395;48.554;8.820;2023-09-08T10:39:29;7.13;;;6.53;;
8716;SDS011;4395;48.554;8.820;2023-09-08T10:41:33;7.23;;;6.60;;
8716;SDS011;4395;48.554;8.820;2023-09-08T10:43:36;7.20;;;6.70;;
8716;SDS011;4395;48.554;8.820;2023-09-08T10:45:40;6.97;;;6.43;;
8716;SDS011;4395;48.554;8.820;2023-09-08T10:47:57;7.07;;;6.40;;
8716;SDS011;4395;48.554;8.820;2023-09-08T10:50:01;7.40;;;6.70;;
8716;SDS011;4395;48.554;8.820;2023-09-08T10:52:08;8.37;;;6.97;;
8716;SDS011;4395;48.554;8.820;2023-09-08T10:54:12;9.13;;;6.90;;
8716;SDS011;4395;48.554;8.820;2023-09-08T10:56:47;7.47;;;6.50;;
8716;SDS011;4395;48.554;8.820;2023-09-08T10:58:58;6.93;;;6.33;;
8716;SDS011;4395;48.554;8.820;2023-09-08T11:01:03;6.67;;;6.10;;
8716;SDS011;4395;48.554;8.820;2023-09-08T11:03:07;6.97;;;6.27;;
8716;SDS011;4395;48.554;8.820;2023-09-08T11:05:10;7.27;;;6.37;;
8716;SDS011;4395;48.554;8.820;2023-09-08T11:07:14;8.83;;;6.43;;
8716;SDS011;4395;48.554;8.820;2023-09-08T11:09:18;8.33;;;6.13;;
8716;SDS011;4395;48.554;8.820;2023-09-08T11:11:22;7.30;;;6.53;;
8716;SDS011;4395;48.554;8.820;2023-09-08T11:13:25;6.47;;;5.87;;
8716;SDS011;4395;48.554;8.820;2023-09-08T11:15:29;6.87;;;6.13;;
8716;SDS011;4395;48.554;8.820;2023-09-08T11:17:32;6.90;;;6.20;;
8716;SDS011;4395;48.554;8.820;2023-09-08T11:19:45;6.07;;;5.50;;
8716;SDS011;4395;48.554;8.820;2023-09-08T11:21:49;7.33;;;6.63;;
8716;SDS011;4395;48.554;8.820;2023-09-08T11:23:52;6.03;;;5.60;;
8716;SDS011;4395;48.554;8.820;2023-09-08T11:25:55;6.97;;;6.33;;
8716;SDS011;4395;48.554;8.820;2023-09-08T11:27:58;7.37;;;6.27;;
8716;SDS011;4395;48.554;8.820;2023-09-08T11:30:02;8.20;;;6.57;;
8716;SDS011;4395;48.554;8.820;2023-09-08T11:32:06;7.03;;;6.43;;
8716;SDS011;4395;48.554;8.820;2023-09-08T11:34:11;6.73;;;6.27;;
8716;SDS011;4395;48.554;8.820;2023-09-08T11:36:16;6.83;;;6.13;;
8716;SDS011;4395;48.554;8.820;2023-09-08T11:38:24;7.77;;;6.77;;
8716;SDS011;4395;48.554;8.820;2023-09-08T11:40:27;6.67;;;5.97;;
8716;SDS011;4395;48.554;8.820;2023-09-08T11:42:30;7.30;;;6.27;;
8716;SDS011;4395;48.554;8.820;2023-09-08T11:44:33;7.17;;;6.30;;
8716;SDS011;4395;48.554;8.820;2023-09-08T11:46:38;7.00;;;6.23;;
8716;SDS011;4395;48.554;8.820;2023-09-08T11:48:41;10.47;;;9.47;;
8716;SDS011;4395;48.554;8.820;2023-09-08T11:50:43;7.43;;;6.83;;
8716;SDS011;4395;48.554;8.820;2023-09-08T11:52:48;9.57;;;6.40;;
8716;SDS011;4395;48.554;8.820;2023-09-08T11:54:52;7.00;;;6.40;;
8716;SDS011;4395;48.554;8.820;2023-09-08T11:57:07;7.23;;;6.40;;
8716;SDS011;4395;48.554;8.820;2023-09-08T11:59:13;6.70;;;6.00;;
8716;SDS011;4395;48.554;8.820;2023-09-08T12:01:16;6.57;;;5.87;;
8716;SDS011;4395;48.554;8.820;2023-09-08T12:03:19;6.73;;;6.13;;
8716;SDS011;4395;48.554;8.820;2023-09-08T12:05:22;6.83;;;5.70;;
8716;SDS011;4395;48.554;8.820;2023-09-08T12:07:26;7.57;;;6.87;;
8716;SDS011;4395;48.554;8.820;2023-09-08T12:09:30;9.07;;;6.97;;
8716;SDS011;4395;48.554;8.820;2023-09-08T12:11:33;7.30;;;6.40;;
8716;SDS011;4395;48.554;8.820;2023-09-08T12:13:38;6.90;;;6.27;;
8716;SDS011;4395;48.554;8.820;2023-09-08T12:15:42;6.67;;;6.03;;
8716;SDS011;4395;48.554;8.820;2023-09-08T12:17:48;6.93;;;6.30;;
8716;SDS011;4395;48.554;8.820;2023-09-08T12:19:52;6.93;;;6.10;;
8716;SDS011;4395;48.554;8.820;2023-09-08T12:21:55;6.63;;;6.03;;
8716;SDS011;4395;48.554;8.820;2023-09-08T12:23:59;6.27;;;5.67;;
8716;SDS011;4395;48.554;8.820;2023-09-08T12:26:03;9.53;;;6.40;;
8716;SDS011;4395;48.554;8.820;2023-09-08T12:28:06;6.80;;;6.13;;
8716;SDS011;4395;48.554;8.820;2023-09-08T12:30:15;6.40;;;5.73;;
8716;SDS011;4395;48.554;8.820;2023-09-08T12:32:18;8.47;;;6.37;;
8716;SDS011;4395;48.554;8.820;2023-09-08T12:34:21;6.37;;;5.87;;
8716;SDS011;4395;48.554;8.820;2023-09-08T12:36:24;13.03;;;7.10;;
8716;SDS011;4395;48.554;8.820;2023-09-08T12:38:30;7.67;;;6.90;;
8716;SDS011;4395;48.554;8.820;2023-09-08T12:40:33;7.00;;;6.30;;
8716;SDS011;4395;48.554;8.820;2023-09-08T12:42:38;6.93;;;6.30;;
8716;SDS011;4395;48.554;8.820;2023-09-08T12:44:51;7.27;;;5.83;;
8716;SDS011;4395;48.554;8.820;2023-09-08T12:46:54;7.23;;;6.20;;
8716;SDS011;4395;48.554;8.820;2023-09-08T12:48:57;7.27;;;6.40;;